sensor_id;sensor_type;location;lat;lon;timestamp;P1;durP1;ratioP1;P2;durP2;ratioP2
80293;SDS011;69594;43.516;1.498;2023-11-19T00:01:25;14.27;;;6.70;;
80293;SDS011;69594;43.516;1.498;2023-11-19T00:03:50;16.00;;;7.00;;
80293;SDS011;69594;43.516;1.498;2023-11-19T00:06:16;17.80;;;8.10;;
80293;SDS011;69594;43.516;1.498;2023-11-19T00:08:41;20.23;;;8.40;;
80293;SDS011;69594;43.516;1.498;2023-11-19T00:11:08;15.38;;;7.10;;
80293;SDS011;69594;43.516;1.498;2023-11-19T00:13:33;13.50;;;6.63;;
80293;SDS011;69594;43.516;1.498;2023-11-19T00:15:59;15.40;;;5.87;;
80293;SDS011;69594;43.516;1.498;2023-11-19T00:18:24;14.30;;;5.97;;
80293;SDS011;69594;43.516;1.498;2023-11-19T00:20:49;12.83;;;5.80;;
80293;SDS011;69594;43.516;1.498;2023-11-19T00:23:14;14.47;;;5.73;;
80293;SDS011;69594;43.516;1.498;2023-11-19T00:25:40;16.13;;;5.67;;
80293;SDS011;69594;43.516;1.498;2023-11-19T00:28:05;10.83;;;5.27;;
80293;SDS011;69594;43.516;1.498;2023-11-19T00:30:31;17.33;;;6.37;;
80293;SDS011;69594;43.516;1.498;2023-11-19T00:32:56;12.23;;;5.85;;
80293;SDS011;69594;43.516;1.498;2023-11-19T00:35:21;14.35;;;6.18;;
80293;SDS011;69594;43.516;1.498;2023-11-19T00:37:46;14.20;;;6.37;;
80293;SDS011;69594;43.516;1.498;2023-11-19T00:40:12;13.07;;;6.00;;
80293;SDS011;69594;43.516;1.498;2023-11-19T00:42:38;13.90;;;5.65;;
80293;SDS011;69594;43.516;1.498;2023-11-19T00:45:03;14.73;;;5.82;;
80293;SDS011;69594;43.516;1.498;2023-11-19T00:47:33;12.93;;;5.80;;
80293;SDS011;69594;43.516;1.498;2023-11-19T00:49:58;13.80;;;6.33;;
80293;SDS011;69594;43.516;1.498;2023-11-19T00:52:23;15.17;;;6.63;;
80293;SDS011;69594;43.516;1.498;2023-11-19T00:54:49;15.93;;;5.90;;
80293;SDS011;69594;43.516;1.498;2023-11-19T00:57:14;10.73;;;5.17;;
80293;SDS011;69594;43.516;1.498;2023-11-19T00:59:42;12.30;;;5.40;;
80293;SDS011;69594;43.516;1.498;2023-11-19T01:02:08;13.73;;;5.88;;
80293;SDS011;69594;43.516;1.498;2023-11-19T01:04:34;17.40;;;6.33;;
80293;SDS011;69594;43.516;1.498;2023-11-19T01:07:01;12.20;;;6.05;;
80293;SDS011;69594;43.516;1.498;2023-11-19T01:09:26;14.82;;;6.25;;
80293;SDS011;69594;43.516;1.498;2023-11-19T01:11:52;14.05;;;6.00;;
80293;SDS011;69594;43.516;1.498;2023-11-19T01:14:18;15.55;;;7.43;;
80293;SDS011;69594;43.516;1.498;2023-11-19T01:16:44;12.95;;;7.47;;
80293;SDS011;69594;43.516;1.498;2023-11-19T01:19:09;12.80;;;7.50;;
80293;SDS011;69594;43.516;1.498;2023-11-19T01:21:35;14.20;;;7.47;;
80293;SDS011;69594;43.516;1.498;2023-11-19T01:24:01;16.83;;;7.60;;
80293;SDS011;69594;43.516;1.498;2023-11-19T01:26:27;15.57;;;7.35;;
80293;SDS011;69594;43.516;1.498;2023-11-19T01:28:53;17.80;;;8.10;;
80293;SDS011;69594;43.516;1.498;2023-11-19T01:31:18;17.77;;;8.57;;
80293;SDS011;69594;43.516;1.498;2023-11-19T01:33:44;19.77;;;7.88;;
80293;SDS011;69594;43.516;1.498;2023-11-19T01:36:12;18.00;;;8.13;;
80293;SDS011;69594;43.516;1.498;2023-11-19T01:38:38;20.13;;;8.07;;
80293;SDS011;69594;43.516;1.498;2023-11-19T01:41:03;16.95;;;8.20;;
80293;SDS011;69594;43.516;1.498;2023-11-19T01:43:35;18.45;;;8.38;;
80293;SDS011;69594;43.516;1.498;2023-11-19T01:46:01;18.80;;;8.25;;
80293;SDS011;69594;43.516;1.498;2023-11-19T01:48:28;16.95;;;7.90;;
80293;SDS011;69594;43.516;1.498;2023-11-19T01:50:54;14.25;;;7.53;;
80293;SDS011;69594;43.516;1.498;2023-11-19T01:53:19;15.77;;;7.80;;
80293;SDS011;69594;43.516;1.498;2023-11-19T01:55:46;18.13;;;9.48;;
80293;SDS011;69594;43.516;1.498;2023-11-19T01:58:12;17.80;;;8.25;;
80293;SDS011;69594;43.516;1.498;2023-11-19T02:00:38;16.67;;;8.10;;
80293;SDS011;69594;43.516;1.498;2023-11-19T02:03:03;17.98;;;9.05;;
80293;SDS011;69594;43.516;1.498;2023-11-19T02:05:32;16.45;;;7.93;;
80293;SDS011;69594;43.516;1.498;2023-11-19T02:07:57;17.33;;;8.60;;
80293;SDS011;69594;43.516;1.498;2023-11-19T02:10:23;18.20;;;9.20;;
80293;SDS011;69594;43.516;1.498;2023-11-19T02:12:50;18.25;;;8.63;;
80293;SDS011;69594;43.516;1.498;2023-11-19T02:15:16;21.77;;;11.40;;
80293;SDS011;69594;43.516;1.498;2023-11-19T02:17:44;19.95;;;10.35;;
80293;SDS011;69594;43.516;1.498;2023-11-19T02:20:09;21.20;;;10.75;;
80293;SDS011;69594;43.516;1.498;2023-11-19T02:22:36;19.50;;;9.25;;
80293;SDS011;69594;43.516;1.498;2023-11-19T02:25:04;21.30;;;9.47;;
80293;SDS011;69594;43.516;1.498;2023-11-19T02:27:51;17.70;;;9.57;;
80293;SDS011;69594;43.516;1.498;2023-11-19T02:30:20;21.17;;;10.05;;
80293;SDS011;69594;43.516;1.498;2023-11-19T02:32:45;20.67;;;9.83;;
80293;SDS011;69594;43.516;1.498;2023-11-19T02:35:11;18.20;;;10.63;;
80293;SDS011;69594;43.516;1.498;2023-11-19T02:37:37;20.30;;;9.87;;
80293;SDS011;69594;43.516;1.498;2023-11-19T02:40:03;17.75;;;9.57;;
80293;SDS011;69594;43.516;1.498;2023-11-19T02:42:29;25.33;;;12.07;;
80293;SDS011;69594;43.516;1.498;2023-11-19T02:44:54;27.50;;;13.13;;
80293;SDS011;69594;43.516;1.498;2023-11-19T02:47:19;24.90;;;11.87;;
80293;SDS011;69594;43.516;1.498;2023-11-19T02:49:46;21.05;;;11.00;;
80293;SDS011;69594;43.516;1.498;2023-11-19T02:52:12;19.00;;;9.30;;
80293;SDS011;69594;43.516;1.498;2023-11-19T02:54:39;19.55;;;9.70;;
80293;SDS011;69594;43.516;1.498;2023-11-19T02:57:06;21.70;;;9.88;;
80293;SDS011;69594;43.516;1.498;2023-11-19T02:59:33;21.85;;;10.05;;
80293;SDS011;69594;43.516;1.498;2023-11-19T03:02:04;21.63;;;10.32;;
80293;SDS011;69594;43.516;1.498;2023-11-19T03:04:31;19.95;;;9.35;;
80293;SDS011;69594;43.516;1.498;2023-11-19T03:06:56;20.57;;;10.20;;
80293;SDS011;69594;43.516;1.498;2023-11-19T03:09:23;17.55;;;9.88;;
80293;SDS011;69594;43.516;1.498;2023-11-19T03:11:49;17.55;;;9.45;;
80293;SDS011;69594;43.516;1.498;2023-11-19T03:14:14;17.00;;;9.07;;
80293;SDS011;69594;43.516;1.498;2023-11-19T03:16:40;21.53;;;10.07;;
80293;SDS011;69594;43.516;1.498;2023-11-19T03:19:05;19.77;;;9.83;;
80293;SDS011;69594;43.516;1.498;2023-11-19T03:21:30;19.73;;;10.50;;
80293;SDS011;69594;43.516;1.498;2023-11-19T03:23:57;19.73;;;8.88;;
80293;SDS011;69594;43.516;1.498;2023-11-19T03:26:25;25.40;;;12.80;;
80293;SDS011;69594;43.516;1.498;2023-11-19T03:28:51;25.05;;;11.70;;
80293;SDS011;69594;43.516;1.498;2023-11-19T03:31:17;25.03;;;11.77;;
80293;SDS011;69594;43.516;1.498;2023-11-19T03:33:42;20.27;;;11.47;;
80293;SDS011;69594;43.516;1.498;2023-11-19T03:36:07;17.87;;;9.53;;
80293;SDS011;69594;43.516;1.498;2023-11-19T03:38:34;18.58;;;8.77;;
80293;SDS011;69594;43.516;1.498;2023-11-19T03:40:59;16.37;;;8.53;;
80293;SDS011;69594;43.516;1.498;2023-11-19T03:43:25;18.53;;;8.70;;
80293;SDS011;69594;43.516;1.498;2023-11-19T03:45:50;17.80;;;8.70;;
80293;SDS011;69594;43.516;1.498;2023-11-19T03:48:15;16.27;;;9.03;;
80293;SDS011;69594;43.516;1.498;2023-11-19T03:50:41;16.80;;;8.88;;
80293;SDS011;69594;43.516;1.498;2023-11-19T03:53:06;19.87;;;8.80;;
80293;SDS011;69594;43.516;1.498;2023-11-19T03:55:32;22.37;;;9.87;;
80293;SDS011;69594;43.516;1.498;2023-11-19T03:57:57;18.10;;;10.10;;
80293;SDS011;69594;43.516;1.498;2023-11-19T04:00:23;17.10;;;9.23;;
80293;SDS011;69594;43.516;1.498;2023-11-19T04:02:49;16.77;;;8.93;;
80293;SDS011;69594;43.516;1.498;2023-11-19T04:05:14;19.87;;;9.00;;
80293;SDS011;69594;43.516;1.498;2023-11-19T04:07:39;17.33;;;9.57;;
80293;SDS011;69594;43.516;1.498;2023-11-19T04:10:05;16.60;;;9.43;;
80293;SDS011;69594;43.516;1.498;2023-11-19T04:12:30;17.43;;;8.27;;
80293;SDS011;69594;43.516;1.498;2023-11-19T04:14:55;16.23;;;8.60;;
80293;SDS011;69594;43.516;1.498;2023-11-19T04:17:21;18.07;;;8.67;;
80293;SDS011;69594;43.516;1.498;2023-11-19T04:19:48;20.13;;;9.07;;
80293;SDS011;69594;43.516;1.498;2023-11-19T04:22:13;22.67;;;10.67;;
80293;SDS011;69594;43.516;1.498;2023-11-19T04:24:38;19.52;;;8.93;;
80293;SDS011;69594;43.516;1.498;2023-11-19T04:27:04;20.70;;;10.15;;
80293;SDS011;69594;43.516;1.498;2023-11-19T04:29:31;19.63;;;9.70;;
80293;SDS011;69594;43.516;1.498;2023-11-19T04:31:56;18.48;;;9.30;;
80293;SDS011;69594;43.516;1.498;2023-11-19T04:34:22;18.07;;;9.57;;
80293;SDS011;69594;43.516;1.498;2023-11-19T04:36:47;20.77;;;10.43;;
80293;SDS011;69594;43.516;1.498;2023-11-19T04:39:12;17.07;;;9.17;;
80293;SDS011;69594;43.516;1.498;2023-11-19T04:41:47;20.65;;;9.70;;
80293;SDS011;69594;43.516;1.498;2023-11-19T04:44:13;19.60;;;9.48;;
80293;SDS011;69594;43.516;1.498;2023-11-19T04:46:39;16.13;;;8.57;;
80293;SDS011;69594;43.516;1.498;2023-11-19T04:49:04;18.60;;;10.13;;
80293;SDS011;69594;43.516;1.498;2023-11-19T04:51:29;23.73;;;12.07;;
80293;SDS011;69594;43.516;1.498;2023-11-19T04:53:55;20.80;;;11.33;;
80293;SDS011;69594;43.516;1.498;2023-11-19T04:56:21;20.27;;;10.60;;
80293;SDS011;69594;43.516;1.498;2023-11-19T04:58:48;17.77;;;9.57;;
80293;SDS011;69594;43.516;1.498;2023-11-19T05:01:13;18.87;;;9.47;;
80293;SDS011;69594;43.516;1.498;2023-11-19T05:03:40;19.20;;;9.38;;
80293;SDS011;69594;43.516;1.498;2023-11-19T05:06:06;18.17;;;8.83;;
80293;SDS011;69594;43.516;1.498;2023-11-19T05:08:31;17.90;;;9.43;;
80293;SDS011;69594;43.516;1.498;2023-11-19T05:10:57;23.48;;;10.48;;
80293;SDS011;69594;43.516;1.498;2023-11-19T05:13:22;18.88;;;9.75;;
80293;SDS011;69594;43.516;1.498;2023-11-19T05:15:48;20.63;;;9.50;;
80293;SDS011;69594;43.516;1.498;2023-11-19T05:18:13;16.40;;;8.97;;
80293;SDS011;69594;43.516;1.498;2023-11-19T05:20:38;18.13;;;9.07;;
80293;SDS011;69594;43.516;1.498;2023-11-19T05:23:03;17.37;;;9.10;;
80293;SDS011;69594;43.516;1.498;2023-11-19T05:25:29;18.60;;;8.97;;
80293;SDS011;69594;43.516;1.498;2023-11-19T05:27:54;17.93;;;9.63;;
80293;SDS011;69594;43.516;1.498;2023-11-19T05:30:20;18.80;;;9.15;;
80293;SDS011;69594;43.516;1.498;2023-11-19T05:32:45;16.97;;;8.90;;
80293;SDS011;69594;43.516;1.498;2023-11-19T05:35:11;17.43;;;9.90;;
80293;SDS011;69594;43.516;1.498;2023-11-19T05:37:36;15.83;;;8.20;;
80293;SDS011;69594;43.516;1.498;2023-11-19T05:40:02;16.17;;;9.15;;
80293;SDS011;69594;43.516;1.498;2023-11-19T05:42:37;19.90;;;9.77;;
80293;SDS011;69594;43.516;1.498;2023-11-19T05:45:02;20.88;;;8.60;;
80293;SDS011;69594;43.516;1.498;2023-11-19T05:47:27;16.13;;;8.30;;
80293;SDS011;69594;43.516;1.498;2023-11-19T05:49:53;17.53;;;9.13;;
80293;SDS011;69594;43.516;1.498;2023-11-19T05:52:18;18.97;;;9.03;;
80293;SDS011;69594;43.516;1.498;2023-11-19T05:54:43;18.97;;;8.50;;
80293;SDS011;69594;43.516;1.498;2023-11-19T05:57:09;18.37;;;9.10;;
80293;SDS011;69594;43.516;1.498;2023-11-19T05:59:34;18.13;;;10.20;;
80293;SDS011;69594;43.516;1.498;2023-11-19T06:02:01;18.17;;;10.05;;
80293;SDS011;69594;43.516;1.498;2023-11-19T06:04:26;21.23;;;9.60;;
80293;SDS011;69594;43.516;1.498;2023-11-19T06:06:51;17.73;;;9.40;;
80293;SDS011;69594;43.516;1.498;2023-11-19T06:09:17;18.50;;;9.17;;
80293;SDS011;69594;43.516;1.498;2023-11-19T06:11:43;19.30;;;9.63;;
80293;SDS011;69594;43.516;1.498;2023-11-19T06:14:09;20.63;;;9.70;;
80293;SDS011;69594;43.516;1.498;2023-11-19T06:16:34;22.40;;;11.37;;
80293;SDS011;69594;43.516;1.498;2023-11-19T06:19:01;22.10;;;11.27;;
80293;SDS011;69594;43.516;1.498;2023-11-19T06:21:27;20.50;;;11.98;;
80293;SDS011;69594;43.516;1.498;2023-11-19T06:23:52;22.80;;;11.07;;
80293;SDS011;69594;43.516;1.498;2023-11-19T06:26:18;24.92;;;11.90;;
80293;SDS011;69594;43.516;1.498;2023-11-19T06:28:43;17.77;;;10.90;;
80293;SDS011;69594;43.516;1.498;2023-11-19T06:31:09;21.95;;;10.18;;
80293;SDS011;69594;43.516;1.498;2023-11-19T06:33:34;21.27;;;11.20;;
80293;SDS011;69594;43.516;1.498;2023-11-19T06:35:59;23.70;;;10.57;;
80293;SDS011;69594;43.516;1.498;2023-11-19T06:38:25;19.33;;;9.97;;
80293;SDS011;69594;43.516;1.498;2023-11-19T06:40:50;19.73;;;10.30;;
80293;SDS011;69594;43.516;1.498;2023-11-19T06:43:15;19.17;;;10.63;;
80293;SDS011;69594;43.516;1.498;2023-11-19T06:45:40;18.17;;;9.80;;
80293;SDS011;69594;43.516;1.498;2023-11-19T06:48:06;19.43;;;10.13;;
80293;SDS011;69594;43.516;1.498;2023-11-19T06:50:32;18.90;;;9.15;;
80293;SDS011;69594;43.516;1.498;2023-11-19T06:52:57;20.47;;;10.03;;
80293;SDS011;69594;43.516;1.498;2023-11-19T06:55:23;19.50;;;9.80;;
80293;SDS011;69594;43.516;1.498;2023-11-19T06:57:48;17.60;;;7.90;;
80293;SDS011;69594;43.516;1.498;2023-11-19T07:00:13;17.23;;;9.48;;
80293;SDS011;69594;43.516;1.498;2023-11-19T07:02:39;19.37;;;10.40;;
80293;SDS011;69594;43.516;1.498;2023-11-19T07:05:05;26.50;;;12.23;;
80293;SDS011;69594;43.516;1.498;2023-11-19T07:07:31;27.92;;;13.57;;
80293;SDS011;69594;43.516;1.498;2023-11-19T07:09:56;27.70;;;13.90;;
80293;SDS011;69594;43.516;1.498;2023-11-19T07:12:22;23.67;;;12.00;;
80293;SDS011;69594;43.516;1.498;2023-11-19T07:14:47;22.67;;;11.43;;
80293;SDS011;69594;43.516;1.498;2023-11-19T07:17:12;19.43;;;11.27;;
80293;SDS011;69594;43.516;1.498;2023-11-19T07:19:38;19.50;;;10.23;;
80293;SDS011;69594;43.516;1.498;2023-11-19T07:22:03;21.33;;;12.03;;
80293;SDS011;69594;43.516;1.498;2023-11-19T07:24:29;24.17;;;14.43;;
80293;SDS011;69594;43.516;1.498;2023-11-19T07:26:54;23.20;;;13.63;;
80293;SDS011;69594;43.516;1.498;2023-11-19T07:29:20;27.63;;;15.27;;
80293;SDS011;69594;43.516;1.498;2023-11-19T07:31:48;26.83;;;14.45;;
80293;SDS011;69594;43.516;1.498;2023-11-19T07:34:13;20.27;;;12.05;;
80293;SDS011;69594;43.516;1.498;2023-11-19T07:36:39;20.83;;;11.77;;
80293;SDS011;69594;43.516;1.498;2023-11-19T07:39:04;17.50;;;11.20;;
80293;SDS011;69594;43.516;1.498;2023-11-19T07:41:30;21.58;;;11.40;;
80293;SDS011;69594;43.516;1.498;2023-11-19T07:43:55;16.97;;;10.80;;
80293;SDS011;69594;43.516;1.498;2023-11-19T07:46:20;16.90;;;10.00;;
80293;SDS011;69594;43.516;1.498;2023-11-19T07:48:46;14.80;;;7.90;;
80293;SDS011;69594;43.516;1.498;2023-11-19T07:51:12;14.87;;;7.87;;
80293;SDS011;69594;43.516;1.498;2023-11-19T07:53:37;14.15;;;6.90;;
80293;SDS011;69594;43.516;1.498;2023-11-19T07:56:03;11.57;;;5.97;;
80293;SDS011;69594;43.516;1.498;2023-11-19T07:58:29;14.23;;;7.77;;
80293;SDS011;69594;43.516;1.498;2023-11-19T08:00:54;11.90;;;5.80;;
80293;SDS011;69594;43.516;1.498;2023-11-19T08:03:19;9.47;;;6.40;;
80293;SDS011;69594;43.516;1.498;2023-11-19T08:05:47;13.98;;;7.03;;
80293;SDS011;69594;43.516;1.498;2023-11-19T08:08:12;12.05;;;6.95;;
80293;SDS011;69594;43.516;1.498;2023-11-19T08:10:37;12.30;;;6.80;;
80293;SDS011;69594;43.516;1.498;2023-11-19T08:13:03;9.80;;;6.13;;
80293;SDS011;69594;43.516;1.498;2023-11-19T08:15:28;11.47;;;6.40;;
80293;SDS011;69594;43.516;1.498;2023-11-19T08:17:53;13.23;;;7.77;;
80293;SDS011;69594;43.516;1.498;2023-11-19T08:20:18;11.03;;;6.37;;
80293;SDS011;69594;43.516;1.498;2023-11-19T08:22:44;11.43;;;6.07;;
80293;SDS011;69594;43.516;1.498;2023-11-19T08:25:09;11.13;;;5.80;;
80293;SDS011;69594;43.516;1.498;2023-11-19T08:27:34;9.43;;;5.20;;
80293;SDS011;69594;43.516;1.498;2023-11-19T08:29:59;8.73;;;4.87;;
80293;SDS011;69594;43.516;1.498;2023-11-19T08:32:25;10.03;;;5.30;;
80293;SDS011;69594;43.516;1.498;2023-11-19T08:34:51;8.05;;;5.50;;
80293;SDS011;69594;43.516;1.498;2023-11-19T08:37:16;9.50;;;5.37;;
80293;SDS011;69594;43.516;1.498;2023-11-19T08:39:45;11.23;;;5.10;;
80293;SDS011;69594;43.516;1.498;2023-11-19T08:42:11;9.93;;;5.00;;
80293;SDS011;69594;43.516;1.498;2023-11-19T08:44:36;9.57;;;5.23;;
80293;SDS011;69594;43.516;1.498;2023-11-19T08:47:02;7.50;;;4.87;;
80293;SDS011;69594;43.516;1.498;2023-11-19T08:49:27;10.93;;;5.07;;
80293;SDS011;69594;43.516;1.498;2023-11-19T08:51:52;12.90;;;4.83;;
80293;SDS011;69594;43.516;1.498;2023-11-19T08:54:18;10.07;;;5.53;;
80293;SDS011;69594;43.516;1.498;2023-11-19T08:56:45;8.90;;;5.40;;
80293;SDS011;69594;43.516;1.498;2023-11-19T08:59:10;9.43;;;5.60;;
80293;SDS011;69594;43.516;1.498;2023-11-19T09:01:36;10.23;;;5.83;;
80293;SDS011;69594;43.516;1.498;2023-11-19T09:04:01;9.07;;;5.00;;
80293;SDS011;69594;43.516;1.498;2023-11-19T09:06:26;10.07;;;5.65;;
80293;SDS011;69594;43.516;1.498;2023-11-19T09:08:52;11.60;;;5.80;;
80293;SDS011;69594;43.516;1.498;2023-11-19T09:11:17;8.00;;;5.03;;
80293;SDS011;69594;43.516;1.498;2023-11-19T09:13:43;10.87;;;5.33;;
80293;SDS011;69594;43.516;1.498;2023-11-19T09:16:11;11.50;;;5.30;;
80293;SDS011;69594;43.516;1.498;2023-11-19T09:18:36;11.10;;;5.20;;
80293;SDS011;69594;43.516;1.498;2023-11-19T09:21:02;11.00;;;5.60;;
80293;SDS011;69594;43.516;1.498;2023-11-19T09:23:28;11.32;;;6.00;;
80293;SDS011;69594;43.516;1.498;2023-11-19T09:25:55;11.70;;;5.55;;
80293;SDS011;69594;43.516;1.498;2023-11-19T09:28:21;10.03;;;5.97;;
80293;SDS011;69594;43.516;1.498;2023-11-19T09:30:46;10.57;;;6.60;;
80293;SDS011;69594;43.516;1.498;2023-11-19T09:33:11;12.05;;;6.45;;
80293;SDS011;69594;43.516;1.498;2023-11-19T09:35:37;10.82;;;6.25;;
80293;SDS011;69594;43.516;1.498;2023-11-19T09:38:02;12.27;;;6.97;;
80293;SDS011;69594;43.516;1.498;2023-11-19T09:40:27;10.87;;;5.53;;
80293;SDS011;69594;43.516;1.498;2023-11-19T09:42:53;9.70;;;5.97;;
80293;SDS011;69594;43.516;1.498;2023-11-19T09:45:20;11.18;;;5.85;;
80293;SDS011;69594;43.516;1.498;2023-11-19T09:47:46;10.17;;;5.43;;
80293;SDS011;69594;43.516;1.498;2023-11-19T09:50:18;10.10;;;5.65;;
80293;SDS011;69594;43.516;1.498;2023-11-19T09:52:44;10.60;;;5.80;;
80293;SDS011;69594;43.516;1.498;2023-11-19T09:55:10;9.68;;;5.65;;
80293;SDS011;69594;43.516;1.498;2023-11-19T09:57:35;9.73;;;5.33;;
80293;SDS011;69594;43.516;1.498;2023-11-19T10:00:07;13.43;;;5.88;;
80293;SDS011;69594;43.516;1.498;2023-11-19T10:02:33;11.68;;;6.22;;
80293;SDS011;69594;43.516;1.498;2023-11-19T10:04:59;12.52;;;5.82;;
80293;SDS011;69594;43.516;1.498;2023-11-19T10:07:24;10.27;;;5.07;;
80293;SDS011;69594;43.516;1.498;2023-11-19T10:09:50;10.15;;;5.03;;
80293;SDS011;69594;43.516;1.498;2023-11-19T10:12:15;13.40;;;5.33;;
80293;SDS011;69594;43.516;1.498;2023-11-19T10:14:41;9.20;;;5.40;;
80293;SDS011;69594;43.516;1.498;2023-11-19T10:17:08;11.02;;;5.80;;
80293;SDS011;69594;43.516;1.498;2023-11-19T10:19:33;13.47;;;6.23;;
80293;SDS011;69594;43.516;1.498;2023-11-19T10:22:03;9.03;;;4.87;;
80293;SDS011;69594;43.516;1.498;2023-11-19T10:24:32;10.65;;;5.28;;
80293;SDS011;69594;43.516;1.498;2023-11-19T10:26:59;10.15;;;5.40;;
80293;SDS011;69594;43.516;1.498;2023-11-19T10:29:24;11.57;;;4.85;;
80293;SDS011;69594;43.516;1.498;2023-11-19T10:31:58;7.70;;;5.00;;
80293;SDS011;69594;43.516;1.498;2023-11-19T10:34:27;9.32;;;5.18;;
80293;SDS011;69594;43.516;1.498;2023-11-19T10:36:53;9.13;;;5.43;;
80293;SDS011;69594;43.516;1.498;2023-11-19T10:39:18;10.07;;;4.90;;
80293;SDS011;69594;43.516;1.498;2023-11-19T10:41:43;9.07;;;5.30;;
80293;SDS011;69594;43.516;1.498;2023-11-19T10:44:09;8.77;;;4.80;;
80293;SDS011;69594;43.516;1.498;2023-11-19T10:46:38;8.95;;;5.00;;
80293;SDS011;69594;43.516;1.498;2023-11-19T10:49:04;10.83;;;4.87;;
80293;SDS011;69594;43.516;1.498;2023-11-19T10:51:31;9.80;;;4.82;;
80293;SDS011;69594;43.516;1.498;2023-11-19T10:53:57;11.10;;;5.05;;
80293;SDS011;69594;43.516;1.498;2023-11-19T10:56:25;9.77;;;5.07;;
80293;SDS011;69594;43.516;1.498;2023-11-19T10:58:50;20.92;;;8.48;;
80293;SDS011;69594;43.516;1.498;2023-11-19T11:01:18;23.90;;;9.63;;
80293;SDS011;69594;43.516;1.498;2023-11-19T11:03:45;10.47;;;4.30;;
80293;SDS011;69594;43.516;1.498;2023-11-19T11:06:11;9.23;;;4.78;;
80293;SDS011;69594;43.516;1.498;2023-11-19T11:08:38;8.33;;;3.97;;
80293;SDS011;69594;43.516;1.498;2023-11-19T11:11:04;11.15;;;4.68;;
80293;SDS011;69594;43.516;1.498;2023-11-19T11:13:29;9.95;;;4.85;;
80293;SDS011;69594;43.516;1.498;2023-11-19T11:15:56;9.67;;;4.70;;
80293;SDS011;69594;43.516;1.498;2023-11-19T11:18:25;11.88;;;4.60;;
80293;SDS011;69594;43.516;1.498;2023-11-19T11:20:52;9.52;;;4.40;;
80293;SDS011;69594;43.516;1.498;2023-11-19T11:33:52;9.18;;;4.22;;
80293;SDS011;69594;43.516;1.498;2023-11-19T11:36:22;8.68;;;4.30;;
80293;SDS011;69594;43.516;1.498;2023-11-19T11:38:48;7.45;;;4.38;;
80293;SDS011;69594;43.516;1.498;2023-11-19T11:41:17;8.23;;;4.30;;
80293;SDS011;69594;43.516;1.498;2023-11-19T11:43:46;7.38;;;4.15;;
80293;SDS011;69594;43.516;1.498;2023-11-19T11:48:56;6.07;;;4.07;;
80293;SDS011;69594;43.516;1.498;2023-11-19T11:51:56;9.23;;;4.23;;
80293;SDS011;69594;43.516;1.498;2023-11-19T11:54:07;9.48;;;4.47;;
80293;SDS011;69594;43.516;1.498;2023-11-19T11:56:33;9.55;;;5.20;;
80293;SDS011;69594;43.516;1.498;2023-11-19T11:58:59;8.33;;;4.07;;
80293;SDS011;69594;43.516;1.498;2023-11-19T12:01:25;8.05;;;4.60;;
80293;SDS011;69594;43.516;1.498;2023-11-19T12:03:55;9.40;;;4.03;;
80293;SDS011;69594;43.516;1.498;2023-11-19T12:06:21;7.28;;;3.80;;
80293;SDS011;69594;43.516;1.498;2023-11-19T12:08:46;6.87;;;4.03;;
80293;SDS011;69594;43.516;1.498;2023-11-19T12:11:11;8.73;;;4.10;;
80293;SDS011;69594;43.516;1.498;2023-11-19T12:13:46;6.75;;;3.60;;
80293;SDS011;69594;43.516;1.498;2023-11-19T12:16:13;6.23;;;3.77;;
80293;SDS011;69594;43.516;1.498;2023-11-19T12:18:39;8.97;;;3.87;;
80293;SDS011;69594;43.516;1.498;2023-11-19T12:21:04;8.73;;;3.47;;
80293;SDS011;69594;43.516;1.498;2023-11-19T12:23:31;6.90;;;3.55;;
80293;SDS011;69594;43.516;1.498;2023-11-19T12:25:56;6.70;;;3.78;;
80293;SDS011;69594;43.516;1.498;2023-11-19T12:28:22;7.60;;;3.73;;
80293;SDS011;69594;43.516;1.498;2023-11-19T12:30:49;6.75;;;3.50;;
80293;SDS011;69594;43.516;1.498;2023-11-19T12:33:14;9.87;;;3.90;;
80293;SDS011;69594;43.516;1.498;2023-11-19T12:35:41;9.82;;;3.70;;
80293;SDS011;69594;43.516;1.498;2023-11-19T12:38:07;7.20;;;3.97;;
80293;SDS011;69594;43.516;1.498;2023-11-19T12:40:33;7.50;;;3.57;;
80293;SDS011;69594;43.516;1.498;2023-11-19T12:42:59;10.75;;;4.20;;
80293;SDS011;69594;43.516;1.498;2023-11-19T12:45:25;7.73;;;3.20;;
80293;SDS011;69594;43.516;1.498;2023-11-19T12:48:05;6.47;;;2.90;;
80293;SDS011;69594;43.516;1.498;2023-11-19T12:50:49;7.65;;;3.63;;
80293;SDS011;69594;43.516;1.498;2023-11-19T12:53:23;6.28;;;3.35;;
80293;SDS011;69594;43.516;1.498;2023-11-19T12:55:49;7.32;;;3.05;;
80293;SDS011;69594;43.516;1.498;2023-11-19T12:58:31;5.87;;;3.47;;
80293;SDS011;69594;43.516;1.498;2023-11-19T13:01:03;7.22;;;3.30;;
80293;SDS011;69594;43.516;1.498;2023-11-19T13:03:29;6.55;;;3.70;;
80293;SDS011;69594;43.516;1.498;2023-11-19T13:06:00;6.82;;;3.10;;
80293;SDS011;69594;43.516;1.498;2023-11-19T13:08:26;7.90;;;3.60;;
80293;SDS011;69594;43.516;1.498;2023-11-19T13:10:51;6.50;;;3.40;;
80293;SDS011;69594;43.516;1.498;2023-11-19T13:13:18;7.17;;;3.30;;
80293;SDS011;69594;43.516;1.498;2023-11-19T13:15:44;6.73;;;3.17;;
80293;SDS011;69594;43.516;1.498;2023-11-19T13:18:12;7.45;;;3.75;;
80293;SDS011;69594;43.516;1.498;2023-11-19T13:20:38;7.65;;;3.17;;
80293;SDS011;69594;43.516;1.498;2023-11-19T13:23:04;8.93;;;3.50;;
80293;SDS011;69594;43.516;1.498;2023-11-19T13:25:30;7.65;;;2.70;;
80293;SDS011;69594;43.516;1.498;2023-11-19T13:27:55;7.05;;;3.17;;
80293;SDS011;69594;43.516;1.498;2023-11-19T13:30:21;8.70;;;3.73;;
80293;SDS011;69594;43.516;1.498;2023-11-19T13:32:49;6.00;;;3.15;;
80293;SDS011;69594;43.516;1.498;2023-11-19T13:35:15;5.83;;;2.83;;
80293;SDS011;69594;43.516;1.498;2023-11-19T13:37:42;5.43;;;2.93;;
80293;SDS011;69594;43.516;1.498;2023-11-19T13:40:07;5.60;;;2.78;;
80293;SDS011;69594;43.516;1.498;2023-11-19T13:42:35;4.23;;;2.43;;
80293;SDS011;69594;43.516;1.498;2023-11-19T13:45:00;5.32;;;2.53;;
80293;SDS011;69594;43.516;1.498;2023-11-19T13:47:25;5.03;;;2.93;;
80293;SDS011;69594;43.516;1.498;2023-11-19T13:49:51;5.80;;;2.83;;
80293;SDS011;69594;43.516;1.498;2023-11-19T13:52:16;5.50;;;3.03;;
80293;SDS011;69594;43.516;1.498;2023-11-19T13:54:41;6.13;;;2.70;;
80293;SDS011;69594;43.516;1.498;2023-11-19T13:57:07;6.43;;;2.83;;
80293;SDS011;69594;43.516;1.498;2023-11-19T13:59:32;6.37;;;3.13;;
80293;SDS011;69594;43.516;1.498;2023-11-19T14:01:58;5.20;;;2.37;;
80293;SDS011;69594;43.516;1.498;2023-11-19T14:04:23;6.70;;;3.10;;
80293;SDS011;69594;43.516;1.498;2023-11-19T14:06:48;6.00;;;2.53;;
80293;SDS011;69594;43.516;1.498;2023-11-19T14:09:13;7.30;;;2.87;;
80293;SDS011;69594;43.516;1.498;2023-11-19T14:11:39;5.37;;;2.67;;
80293;SDS011;69594;43.516;1.498;2023-11-19T14:14:04;4.33;;;2.40;;
80293;SDS011;69594;43.516;1.498;2023-11-19T14:16:29;5.13;;;2.37;;
80293;SDS011;69594;43.516;1.498;2023-11-19T14:18:55;4.60;;;2.30;;
80293;SDS011;69594;43.516;1.498;2023-11-19T14:21:20;5.80;;;2.77;;
80293;SDS011;69594;43.516;1.498;2023-11-19T14:23:46;6.10;;;2.50;;
80293;SDS011;69594;43.516;1.498;2023-11-19T14:26:11;5.03;;;2.50;;
80293;SDS011;69594;43.516;1.498;2023-11-19T14:28:37;7.22;;;2.67;;
80293;SDS011;69594;43.516;1.498;2023-11-19T14:31:03;5.70;;;2.40;;
80293;SDS011;69594;43.516;1.498;2023-11-19T14:33:28;5.57;;;2.37;;
80293;SDS011;69594;43.516;1.498;2023-11-19T14:35:54;6.80;;;2.63;;
80293;SDS011;69594;43.516;1.498;2023-11-19T14:38:19;4.90;;;2.20;;
80293;SDS011;69594;43.516;1.498;2023-11-19T14:40:45;5.93;;;2.47;;
80293;SDS011;69594;43.516;1.498;2023-11-19T14:43:10;5.30;;;2.40;;